EGPK

Glasgow Prestwick Airport

Airport
ICAO code
EGPK
IATA Code
PIK
Summary
ICAO Region
EUR
ICAO Territory
Location

Prestwick, South Ayrshire, Scotland

Serving
Glasgow
Elevation
65 ft
Coordinates
55° 30' 21" N , 4° 35' 12" W
KCC
Cfb
Metar
Observation
EGPK 101020Z 26006KT 230V300 CAVOK 20/14 Q1026
Station
Prestwick Airport
Date/Time
2022-08-10 10:20:00
Wind direction
260°
Wind speed
06 kts
Lowest cloud amount
clouds and visibility OK
Temperature
20°C
Dew point
14°C
Humidity
68%
QNH
1026 hPa
Weather condition
n/a

Description

International airport serving south west Scotland and the Glasgow urban area, situated 50 km from Glasgow city centre.

Climatology

Temperate Marine climate/Oceanic climate (Köppen climate classification Cfb). Moderately cool summer and comparatively warm winter with a temperature range of only 14°C. Prevailing south-westerly winds from the Atlantic Ocean.

Runways

Designator Length Width Surface Rops
3/21 1829 45 ASP Yes/Yes
13/31 2987 46 PEM Yes/Yes

SKYbrary Partners:

Safety knowledge contributed by: